Time;durP1;ratioP1;P1;durP2;ratioP2;P2;SDS_P1;SDS_P2;PMS_P1;PMS_P2;Temp;Humidity;BMP_temperature;BMP_pressure;BME280_temperature;BME280_humidity;BME280_pressure;Samples;Min_cycle;Max_cycle;Signal;HPM_P1;HPM_P2
2023/04/03 00:01:33;;;;;;;0.10;0.10;;;;;;;8.36;65.50;99479.72;4924393;29;20060;-69
2023/04/03 00:04:01;;;;;;;0.13;0.13;;;;;;;8.34;65.62;99481.06;4941124;28;20059;-68
2023/04/03 00:06:28;;;;;;;0.15;0.15;;;;;;;8.36;65.77;99484.38;4924235;29;20051;-69
2023/04/03 00:08:54;;;;;;;0.20;0.20;;;;;;;8.34;65.57;99478.34;4944966;29;20511;-69
2023/04/03 00:11:21;;;;;;;0.20;0.20;;;;;;;8.36;65.64;99479.72;4926410;29;20055;-69
2023/04/03 00:13:47;;;;;;;;;;;;;;;8.31;65.38;99487.06;4927206;28;20553;-69
2023/04/03 00:16:13;;;;;;;0.10;0.10;;;;;;;8.27;65.80;99484.03;4939262;29;20021;-69
2023/04/03 00:18:40;;;;;;;0.10;0.10;;;;;;;8.16;66.01;99480.47;4940754;29;20475;-69
2023/04/03 00:21:06;;;;;;;0.28;0.17;;;;;;;8.07;66.35;99485.63;4943826;29;20090;-68
2023/04/03 00:23:32;;;;;;;0.10;0.10;;;;;;;8.04;66.53;99494.31;4941342;28;20062;-68
2023/04/03 00:25:59;;;;;;;0.20;0.20;;;;;;;7.94;66.90;99491.53;4939799;28;20151;-68
2023/04/03 00:28:26;;;;;;;0.30;0.20;;;;;;;7.77;67.30;99483.56;4941411;29;20079;-68
2023/04/03 00:30:52;;;;;;;;;;;;;;;7.64;67.81;99487.56;4927349;29;20063;-68
2023/04/03 00:33:21;;;;;;;0.20;0.20;;;;;;;7.51;68.35;99489.69;4926332;28;19926;-69
2023/04/03 00:35:48;;;;;;;0.17;0.17;;;;;;;7.36;68.71;99495.81;4936462;28;20472;-68
2023/04/03 00:38:14;;;;;;;0.20;0.20;;;;;;;7.27;69.09;99483.81;4942464;28;20063;-68
2023/04/03 00:40:43;;;;;;;0.10;0.10;;;;;;;7.24;69.53;99489.75;4922928;29;20043;-69
2023/04/03 00:43:13;;;;;;;0.20;0.20;;;;;;;7.21;69.70;99498.44;4928322;29;20466;-68
2023/04/03 00:45:42;;;;;;;0.10;0.10;;;;;;;7.13;70.05;99488.03;4940916;28;20430;-68
2023/04/03 00:48:13;;;;;;;0.20;0.20;;;;;;;7.08;69.84;99489.63;4906222;29;20055;-68
2023/04/03 00:50:42;;;;;;;0.10;0.10;;;;;;;7.07;70.32;99492.63;4939571;29;20058;-68
2023/04/03 00:53:11;;;;;;;0.13;0.13;;;;;;;7.04;70.29;99491.22;4924318;29;20717;-68
2023/04/03 00:55:38;;;;;;;0.10;0.10;;;;;;;7.04;70.44;99490.41;4927553;29;20059;-68
2023/04/03 00:58:06;;;;;;;0.30;0.30;;;;;;;7.01;70.42;99488.19;4924730;29;20063;-68
2023/04/03 01:00:34;;;;;;;0.10;0.10;;;;;;;6.97;70.43;99477.03;4926402;29;20055;-68
2023/04/03 01:03:01;;;;;;;0.43;0.30;;;;;;;6.95;70.55;99482.72;4939105;29;20055;-68
2023/04/03 01:05:28;;;;;;;0.20;0.20;;;;;;;6.90;70.81;99481.84;4923882;29;20062;-68
2023/04/03 01:07:55;;;;;;;0.25;0.10;;;;;;;6.89;71.01;99485.66;4927391;29;20095;-68
2023/04/03 01:10:21;;;;;;;0.20;0.20;;;;;;;6.89;71.11;99482.94;4922797;29;20064;-68
2023/04/03 01:12:50;;;;;;;0.40;0.20;;;;;;;6.88;71.23;99487.56;4926125;29;20068;-68
2023/04/03 01:15:19;;;;;;;0.22;0.22;;;;;;;6.90;71.04;99490.00;4940835;28;20056;-68
2023/04/03 01:17:47;;;;;;;0.10;0.10;;;;;;;6.85;71.20;99479.91;4929030;29;20099;-68
2023/04/03 01:20:51;;;;;;;0.10;0.10;;;;;;;6.85;71.24;99484.53;4941215;28;20051;-68
2023/04/03 01:23:32;;;;;;;0.20;0.20;;;;;;;6.79;71.35;99483.66;4937292;28;20074;-69
2023/04/03 01:25:58;;;;;;;0.20;0.20;;;;;;;6.67;71.77;99491.97;4940534;29;20083;-68
2023/04/03 01:28:26;;;;;;;0.10;0.10;;;;;;;6.61;71.98;99490.28;4909566;29;20510;-67
2023/04/03 01:31:08;;;;;;;0.20;0.20;;;;;;;6.52;72.47;99485.31;4939667;28;20054;-68
2023/04/03 01:33:37;;;;;;;0.10;0.10;;;;;;;6.47;72.66;99489.88;4923135;29;20048;-68
2023/04/03 01:36:05;;;;;;;0.20;0.20;;;;;;;6.43;73.24;99492.25;4924390;29;20051;-68
2023/04/03 01:38:32;;;;;;;0.20;0.20;;;;;;;6.39;73.02;99496.56;4924228;29;20044;-68
2023/04/03 01:40:59;;;;;;;0.10;0.10;;;;;;;6.33;73.22;99489.44;4922572;29;20413;-68
2023/04/03 01:43:25;;;;;;;0.30;0.20;;;;;;;6.27;73.48;99485.84;4923686;29;20059;-68
2023/04/03 01:45:52;;;;;;;0.10;0.10;;;;;;;6.20;73.79;99485.22;4947499;28;20146;-68
2023/04/03 01:48:18;;;;;;;0.10;0.10;;;;;;;6.15;73.74;99487.88;4936585;28;20051;-68
2023/04/03 01:50:46;;;;;;;0.57;0.20;;;;;;;6.08;74.21;99485.34;4941675;28;20043;-68
2023/04/03 01:53:13;;;;;;;0.13;0.13;;;;;;;6.07;74.39;99492.66;4939380;29;20056;-68
2023/04/03 01:55:39;;;;;;;0.10;0.10;;;;;;;6.03;74.73;99491.53;4926106;29;20059;-68
2023/04/03 01:58:06;;;;;;;0.20;0.20;;;;;;;5.99;74.84;99509.38;4941249;28;20110;-68
2023/04/03 02:00:32;;;;;;;0.17;0.17;;;;;;;5.94;75.00;99493.03;4940071;28;20048;-69
2023/04/03 02:02:58;;;;;;;0.10;0.10;;;;;;;5.91;75.24;99498.94;4941125;29;20056;-68
2023/04/03 02:05:25;;;;;;;0.20;0.20;;;;;;;5.86;75.37;99504.31;4924754;29;20087;-68
2023/04/03 02:07:53;;;;;;;0.10;0.10;;;;;;;5.84;75.23;99501.03;4926518;29;20063;-69
2023/04/03 02:10:19;;;;;;;0.20;0.20;;;;;;;5.80;75.67;99501.53;4926235;28;20078;-69
2023/04/03 02:12:46;;;;;;;0.10;0.10;;;;;;;5.78;75.69;99494.69;4945734;28;20059;-69
2023/04/03 02:15:12;;;;;;;0.10;0.10;;;;;;;5.70;75.85;99485.09;4938881;28;20052;-69
2023/04/03 02:17:38;;;;;;;0.10;0.10;;;;;;;5.80;75.80;99500.69;4925132;29;20422;-68
2023/04/03 02:20:05;;;;;;;0.13;0.13;;;;;;;5.81;75.67;99500.47;4924507;29;20154;-69
2023/04/03 02:22:34;;;;;;;0.10;0.10;;;;;;;5.85;75.66;99502.66;4921667;29;20125;-68
2023/04/03 02:25:02;;;;;;;0.10;0.10;;;;;;;5.88;75.54;99503.00;4929441;29;20055;-68
2023/04/03 02:27:29;;;;;;;0.10;0.10;;;;;;;5.90;75.42;99503.56;4929602;29;20060;-68
2023/04/03 02:29:55;;;;;;;0.22;0.22;;;;;;;5.90;75.26;99497.28;4925232;28;20047;-68
2023/04/03 02:32:22;;;;;;;0.20;0.20;;;;;;;5.90;75.37;99497.28;4948570;28;20079;-68
2023/04/03 02:34:48;;;;;;;0.20;0.20;;;;;;;5.88;75.33;99502.16;4928346;29;20534;-68
2023/04/03 02:37:15;;;;;;;0.10;0.10;;;;;;;5.88;75.43;99499.44;4950736;28;20054;-68
2023/04/03 02:39:43;;;;;;;0.17;0.17;;;;;;;5.87;75.25;99500.50;4941964;28;20556;-69
2023/04/03 02:42:11;;;;;;;0.10;0.10;;;;;;;5.91;75.42;99501.66;4944765;28;20066;-68
2023/04/03 02:44:37;;;;;;;0.17;0.17;;;;;;;5.89;75.14;99499.19;4926777;29;20047;-69
2023/04/03 02:47:03;;;;;;;0.10;0.10;;;;;;;5.86;75.35;99501.59;4929240;29;20103;-68
2023/04/03 02:49:29;;;;;;;0.35;0.20;;;;;;;5.91;75.39;99505.19;4926359;29;20083;-68
2023/04/03 02:51:55;;;;;;;0.10;0.10;;;;;;;5.90;75.42;99505.44;4930879;29;20134;-68
2023/04/03 02:54:23;;;;;;;0.10;0.10;;;;;;;5.89;75.33;99506.50;4928114;29;20040;-68
2023/04/03 02:56:52;;;;;;;0.20;0.20;;;;;;;5.86;75.20;99509.72;4927726;29;20056;-68
2023/04/03 02:59:20;;;;;;;0.20;0.20;;;;;;;5.79;75.34;99507.19;4927228;29;20067;-68
2023/04/03 03:01:46;;;;;;;0.20;0.20;;;;;;;5.75;75.39;99508.78;4943613;28;20581;-68
2023/04/03 03:04:12;;;;;;;0.20;0.20;;;;;;;5.70;75.31;99509.50;4947780;29;20048;-68
2023/04/03 03:06:38;;;;;;;0.20;0.20;;;;;;;5.66;75.33;99509.19;4925926;29;20043;-68
2023/04/03 03:09:05;;;;;;;0.20;0.20;;;;;;;5.64;75.63;99516.75;4927104;28;20055;-68
2023/04/03 03:11:31;;;;;;;0.13;0.13;;;;;;;5.58;75.69;99515.06;4927215;29;20090;-68
2023/04/03 03:13:58;;;;;;;0.10;0.10;;;;;;;5.54;75.80;99511.16;4926873;29;20054;-68
2023/04/03 03:16:26;;;;;;;;;;;;;;;5.51;75.96;99515.22;4928799;29;20048;-68
2023/04/03 03:18:52;;;;;;;0.10;0.10;;;;;;;5.49;75.78;99524.66;4927020;28;20264;-68
2023/04/03 03:21:18;;;;;;;0.20;0.20;;;;;;;5.44;75.77;99514.56;4939678;28;20076;-68
2023/04/03 03:23:44;;;;;;;0.20;0.20;;;;;;;5.43;76.11;99506.69;4947564;28;20048;-68
2023/04/03 03:26:12;;;;;;;0.10;0.10;;;;;;;5.38;75.95;99512.84;4952367;28;20046;-68
2023/04/03 03:28:40;;;;;;;0.10;0.10;;;;;;;5.36;76.28;99506.84;4925397;29;20052;-69
2023/04/03 03:31:07;;;;;;;0.20;0.20;;;;;;;5.35;76.42;99511.44;4924122;29;20047;-68
2023/04/03 03:33:36;;;;;;;0.10;0.10;;;;;;;5.38;76.48;99512.84;4922549;29;20409;-68
2023/04/03 03:36:02;;;;;;;0.20;0.20;;;;;;;5.39;76.50;99519.91;4928968;28;20455;-68
2023/04/03 03:38:29;;;;;;;0.20;0.20;;;;;;;5.37;76.49;99525.56;4942610;28;20423;-68
2023/04/03 03:40:55;;;;;;;0.10;0.10;;;;;;;5.34;76.65;99522.53;4941115;28;20058;-68
2023/04/03 03:43:23;;;;;;;0.20;0.20;;;;;;;5.34;76.66;99526.06;4911498;29;20538;-68
2023/04/03 03:45:51;;;;;;;0.20;0.20;;;;;;;5.33;76.62;99524.41;4925541;29;20056;-69
2023/04/03 03:48:18;;;;;;;0.10;0.10;;;;;;;5.32;76.63;99514.66;4940702;28;20048;-68
2023/04/03 03:50:46;;;;;;;0.20;0.20;;;;;;;5.33;76.65;99515.47;4940629;28;20044;-68
2023/04/03 03:53:12;;;;;;;0.30;0.20;;;;;;;5.31;76.68;99529.28;4926634;29;20051;-68
2023/04/03 03:55:39;;;;;;;0.43;0.20;;;;;;;5.30;76.74;99521.38;4946415;28;20047;-68
2023/04/03 03:58:05;;;;;;;0.70;0.20;;;;;;;5.28;76.80;99516.22;4926452;29;20114;-69
2023/04/03 04:00:33;;;;;;;0.10;0.10;;;;;;;5.26;76.90;99526.50;4939945;28;20063;-68
2023/04/03 04:03:00;;;;;;;0.50;0.25;;;;;;;5.29;76.99;99527.88;4940364;28;20266;-68
2023/04/03 04:05:28;;;;;;;0.20;0.20;;;;;;;5.30;76.72;99522.22;4941448;28;20471;-68
2023/04/03 04:07:56;;;;;;;0.20;0.20;;;;;;;5.28;76.78;99524.34;4926018;28;20082;-68
2023/04/03 04:10:23;;;;;;;0.50;0.30;;;;;;;5.25;76.82;99512.09;4929185;28;20095;-68
2023/04/03 04:12:51;;;;;;;0.25;0.25;;;;;;;5.29;76.97;99522.44;4924987;29;20146;-68
2023/04/03 04:15:21;;;;;;;0.13;0.13;;;;;;;5.33;76.72;99526.31;4925158;29;20051;-68
2023/04/03 04:17:48;;;;;;;0.20;0.20;;;;;;;5.39;76.38;99523.44;4941297;28;20318;-68
2023/04/03 04:20:15;;;;;;;0.20;0.20;;;;;;;5.45;75.94;99523.53;4926380;29;20058;-68
2023/04/03 04:22:41;;;;;;;0.20;0.20;;;;;;;5.53;75.76;99532.06;4945758;28;20048;-68
2023/04/03 04:25:10;;;;;;;0.10;0.10;;;;;;;5.66;75.43;99524.66;4946063;28;20713;-68
2023/04/03 04:27:39;;;;;;;0.10;0.10;;;;;;;5.76;74.95;99532.91;4922202;29;20585;-67
2023/04/03 04:30:07;;;;;;;0.20;0.20;;;;;;;5.84;74.68;99539.81;4942281;28;20051;-69
2023/04/03 04:32:33;;;;;;;;;;;;;;;5.92;74.41;99528.53;4946508;28;20534;-68
2023/04/03 04:35:00;;;;;;;0.20;0.20;;;;;;;6.01;73.84;99534.38;4942375;29;20409;-69
2023/04/03 04:37:29;;;;;;;0.20;0.20;;;;;;;6.07;73.54;99527.94;4926923;29;20138;-69
2023/04/03 04:39:55;;;;;;;0.20;0.20;;;;;;;6.13;73.21;99531.56;4945590;28;20103;-69
2023/04/03 04:42:23;;;;;;;0.30;0.30;;;;;;;6.20;72.97;99536.78;4928925;29;20048;-69
2023/04/03 04:44:50;;;;;;;0.20;0.20;;;;;;;6.26;72.63;99534.97;4943565;29;20048;-69
2023/04/03 04:47:16;;;;;;;0.30;0.30;;;;;;;6.30;72.67;99541.53;4925571;29;20058;-68
2023/04/03 04:49:43;;;;;;;0.20;0.20;;;;;;;6.33;72.41;99538.34;4941132;29;20055;-68
2023/04/03 04:52:10;;;;;;;0.63;0.30;;;;;;;6.44;72.19;99531.94;4923210;29;20081;-68
2023/04/03 04:54:38;;;;;;;0.20;0.20;;;;;;;6.53;71.90;99537.72;4941413;28;20153;-69
2023/04/03 04:57:04;;;;;;;0.20;0.20;;;;;;;6.60;71.42;99532.94;4937333;29;20518;-69
2023/04/03 04:59:32;;;;;;;0.20;0.20;;;;;;;6.63;71.43;99521.56;4928341;29;20123;-68
2023/04/03 05:01:58;;;;;;;0.20;0.20;;;;;;;6.72;71.18;99531.97;4928431;29;20071;-67
2023/04/03 05:04:26;;;;;;;0.20;0.20;;;;;;;6.80;70.91;99536.94;4941078;28;20056;-68
2023/04/03 05:06:59;;;;;;;0.30;0.30;;;;;;;6.84;70.56;99527.19;4599296;28;10000123;-67
2023/04/03 05:09:27;;;;;;;0.20;0.20;;;;;;;6.95;70.27;99528.94;4936010;28;20060;-68
2023/04/03 05:11:54;;;;;;;0.20;0.20;;;;;;;7.06;70.03;99540.72;4922088;29;20601;-68
2023/04/03 05:14:23;;;;;;;0.60;0.30;;;;;;;7.20;69.81;99541.13;4924593;29;20640;-69
2023/04/03 05:16:54;;;;;;;0.20;0.20;;;;;;;7.30;69.37;99542.28;4936562;28;20048;-69
2023/04/03 05:19:23;;;;;;;0.35;0.22;;;;;;;7.38;68.96;99534.47;4937668;28;20150;-69
2023/04/03 05:21:54;;;;;;;0.10;0.10;;;;;;;7.51;68.75;99537.81;4933939;29;20510;-69
2023/04/03 05:24:20;;;;;;;1.33;0.30;;;;;;;7.62;68.25;99538.72;4907012;29;20998;-68
2023/04/03 05:26:47;;;;;;;0.20;0.20;;;;;;;7.72;68.35;99535.25;4925944;29;20123;-68
2023/04/03 05:29:14;;;;;;;0.22;0.22;;;;;;;7.82;68.07;99537.22;4906735;29;20471;-69
2023/04/03 05:31:41;;;;;;;0.17;0.17;;;;;;;7.85;67.86;99540.22;4922817;29;20066;-69
2023/04/03 05:34:11;;;;;;;0.22;0.22;;;;;;;7.88;67.86;99544.34;4915758;29;20103;-71
2023/04/03 05:36:38;;;;;;;0.30;0.30;;;;;;;7.89;67.65;99544.09;4939976;29;20244;-69
2023/04/03 05:39:07;;;;;;;1.23;0.40;;;;;;;7.92;67.38;99545.44;4941578;28;20044;-68
2023/04/03 05:41:36;;;;;;;0.28;0.28;;;;;;;8.06;67.21;99551.25;4938833;28;20051;-69
2023/04/03 05:44:02;;;;;;;0.38;0.35;;;;;;;8.10;67.03;99549.63;4924324;29;20048;-68
2023/04/03 05:46:29;;;;;;;0.38;0.25;;;;;;;8.15;66.67;99548.84;4928061;29;20044;-69
2023/04/03 05:48:57;;;;;;;0.20;0.20;;;;;;;8.20;66.57;99546.97;4926275;29;20047;-69
2023/04/03 05:51:34;;;;;;;0.43;0.20;;;;;;;8.27;66.62;99551.34;4938060;28;20044;-69
2023/04/03 05:54:13;;;;;;;0.28;0.28;;;;;;;8.38;66.20;99559.28;4946913;28;20558;-69
2023/04/03 05:56:40;;;;;;;0.20;0.20;;;;;;;8.42;66.17;99551.41;4936751;28;20068;-68
2023/04/03 05:59:07;;;;;;;0.30;0.30;;;;;;;8.50;66.00;99561.81;4924158;29;20054;-68
2023/04/03 06:01:34;;;;;;;0.30;0.25;;;;;;;8.58;65.79;99563.19;4940733;29;20039;-68
2023/04/03 06:04:01;;;;;;;0.30;0.30;;;;;;;8.63;65.64;99559.69;4926066;29;20048;-68
2023/04/03 06:06:43;;;;;;;0.20;0.20;;;;;;;8.62;65.38;99569.78;4925803;29;20062;-68
2023/04/03 06:09:09;;;;;;;0.35;0.30;;;;;;;8.60;65.29;99569.22;4939683;29;20043;-68
2023/04/03 06:11:35;;;;;;;0.20;0.20;;;;;;;8.67;65.14;99566.25;4924739;29;20070;-68
2023/04/03 06:14:02;;;;;;;0.35;0.30;;;;;;;8.76;65.02;99574.72;4935266;29;20613;-67
2023/04/03 06:16:29;;;;;;;0.40;0.30;;;;;;;8.77;64.83;99573.63;4925252;29;20075;-67
2023/04/03 06:18:55;;;;;;;0.35;0.35;;;;;;;8.80;64.46;99571.16;4927740;29;20052;-67
2023/04/03 06:21:22;;;;;;;0.32;0.30;;;;;;;8.78;64.65;99575.28;4939490;29;20106;-67
2023/04/03 06:23:51;;;;;;;0.28;0.28;;;;;;;8.93;64.13;99571.75;4941742;29;20060;-66
2023/04/03 06:26:17;;;;;;;0.47;0.35;;;;;;;9.00;63.68;99575.06;4926604;29;20051;-67
2023/04/03 06:28:43;;;;;;;0.32;0.32;;;;;;;9.12;63.35;99572.06;4929626;29;20051;-67
2023/04/03 06:31:09;;;;;;;0.30;0.30;;;;;;;9.19;63.08;99569.06;4924078;29;20059;-68
2023/04/03 06:33:35;;;;;;;0.20;0.20;;;;;;;9.26;62.90;99568.81;4927205;29;20051;-68
2023/04/03 06:36:04;;;;;;;0.30;0.30;;;;;;;9.48;62.54;99569.34;4927011;29;20073;-67
2023/04/03 06:38:30;;;;;;;0.20;0.20;;;;;;;9.67;61.60;99571.53;4928562;29;20043;-67
2023/04/03 06:40:58;;;;;;;0.52;0.40;;;;;;;9.86;61.26;99579.16;4924945;29;20052;-67
2023/04/03 06:43:24;;;;;;;;;;;;;;;9.96;60.81;99578.34;4926504;29;20043;-67
2023/04/03 06:45:50;;;;;;;0.50;0.40;;;;;;;10.15;60.26;99584.03;4943988;28;19926;-68
2023/04/03 06:48:16;;;;;;;0.30;0.30;;;;;;;10.37;59.73;99583.66;4928181;29;20067;-68
2023/04/03 06:50:43;;;;;;;0.30;0.30;;;;;;;10.49;59.12;99575.19;4941160;28;20772;-68
2023/04/03 06:53:09;;;;;;;0.30;0.30;;;;;;;10.74;58.36;99581.63;4585367;28;10000468;-68
2023/04/03 06:55:36;;;;;;;0.63;0.50;;;;;;;10.99;57.91;99568.94;4938475;29;20054;-68
2023/04/03 06:58:04;;;;;;;0.70;0.40;;;;;;;11.24;57.25;99573.41;4923778;29;20139;-69
2023/04/03 07:00:30;;;;;;;0.82;0.40;;;;;;;11.54;56.54;99582.47;4926180;29;20047;-68
2023/04/03 07:02:57;;;;;;;0.32;0.32;;;;;;;11.80;55.78;99573.22;4937386;29;20143;-68
2023/04/03 07:05:23;;;;;;;0.80;0.40;;;;;;;12.02;55.17;99570.84;4924397;29;20070;-68
2023/04/03 07:07:50;;;;;;;0.52;0.50;;;;;;;12.23;54.43;99575.28;4926102;29;20143;-68
2023/04/03 07:10:16;;;;;;;0.65;0.40;;;;;;;12.42;54.08;99575.34;4930654;29;20079;-68
2023/04/03 07:12:42;;;;;;;0.43;0.43;;;;;;;12.60;53.12;99574.56;4930490;28;20067;-67
2023/04/03 07:15:12;;;;;;;0.43;0.43;;;;;;;12.77;52.84;99570.50;4927217;28;20096;-68
2023/04/03 07:17:38;;;;;;;0.40;0.40;;;;;;;12.87;52.40;99566.78;4939954;28;20500;-68
2023/04/03 07:20:06;;;;;;;0.40;0.40;;;;;;;13.06;52.00;99569.53;4925236;29;20570;-68
2023/04/03 07:22:32;;;;;;;0.40;0.40;;;;;;;13.16;51.61;99563.91;4923262;29;20091;-68
2023/04/03 07:25:02;;;;;;;0.77;0.40;;;;;;;13.42;51.24;99568.97;4923958;29;20422;-68
2023/04/03 07:27:29;;;;;;;0.45;0.45;;;;;;;13.50;50.59;99559.28;4922208;29;20048;-67
2023/04/03 07:29:55;;;;;;;0.52;0.50;;;;;;;13.72;50.47;99571.56;4941853;29;20492;-68
2023/04/03 07:32:23;;;;;;;0.40;0.40;;;;;;;13.86;49.88;99575.16;4930798;29;20126;-67
2023/04/03 07:34:49;;;;;;;0.40;0.40;;;;;;;14.06;49.13;99575.09;4945364;28;20053;-68
2023/04/03 07:37:17;;;;;;;0.40;0.40;;;;;;;14.09;49.07;99580.78;4930698;29;20055;-68
2023/04/03 07:39:44;;;;;;;0.45;0.35;;;;;;;14.15;48.33;99579.59;4930317;28;20055;-67
2023/04/03 07:42:12;;;;;;;0.40;0.40;;;;;;;14.17;48.03;99580.09;4932794;29;20059;-68
2023/04/03 07:44:38;;;;;;;0.22;0.22;;;;;;;14.08;48.39;99575.59;4932434;29;20119;-68
2023/04/03 07:47:04;;;;;;;0.30;0.30;;;;;;;13.80;48.90;99581.03;4933102;29;20055;-68
2023/04/03 07:49:32;;;;;;;0.40;0.40;;;;;;;13.71;49.55;99580.91;4932000;29;20048;-67
2023/04/03 07:51:59;;;;;;;0.40;0.40;;;;;;;13.61;49.43;99579.97;4934292;29;20131;-68
2023/04/03 07:54:25;;;;;;;0.30;0.30;;;;;;;13.64;49.43;99574.97;4946821;29;20052;-67
2023/04/03 07:56:51;;;;;;;0.43;0.43;;;;;;;13.55;49.72;99577.59;4932970;29;20134;-68
2023/04/03 07:59:17;;;;;;;1.33;0.60;;;;;;;13.65;50.02;99580.19;4933477;29;20056;-67
2023/04/03 08:01:43;;;;;;;0.40;0.40;;;;;;;13.59;50.11;99570.41;4946948;28;20047;-68
2023/04/03 08:04:09;;;;;;;0.32;0.32;;;;;;;13.57;49.93;99572.63;4930603;29;20040;-68
2023/04/03 08:06:37;;;;;;;0.43;0.43;;;;;;;13.53;50.08;99583.41;4931733;29;20052;-68
2023/04/03 08:09:03;;;;;;;;;;;;;;;13.38;50.25;99576.19;4916394;29;20079;-68
2023/04/03 08:11:30;;;;;;;0.40;0.40;;;;;;;13.23;50.70;99573.69;4932799;29;20342;-67
2023/04/03 08:13:57;;;;;;;0.40;0.40;;;;;;;13.25;50.84;99575.03;4931496;29;20546;-68
2023/04/03 08:16:26;;;;;;;0.40;0.40;;;;;;;13.33;50.39;99579.84;4929432;29;20051;-68
2023/04/03 08:18:53;;;;;;;0.85;0.52;;;;;;;13.30;50.22;99583.19;4930357;29;20043;-68
2023/04/03 08:21:19;;;;;;;0.35;0.30;;;;;;;13.37;49.82;99577.31;4930250;28;20142;-67
2023/04/03 08:23:48;;;;;;;0.40;0.40;;;;;;;13.46;49.30;99574.72;4947724;29;20048;-68
2023/04/03 08:26:16;;;;;;;0.30;0.30;;;;;;;13.47;48.62;99584.59;4930035;29;20052;-68
2023/04/03 08:28:42;;;;;;;0.32;0.32;;;;;;;13.39;48.29;99582.50;4930962;29;20062;-68
2023/04/03 08:31:11;;;;;;;0.30;0.30;;;;;;;13.36;48.69;99591.34;4932197;29;20530;-68
2023/04/03 08:33:38;;;;;;;0.30;0.30;;;;;;;13.43;48.45;99586.28;4932371;29;20055;-68
2023/04/03 08:36:06;;;;;;;0.30;0.30;;;;;;;13.39;48.71;99583.31;4945423;28;20059;-68
2023/04/03 08:38:32;;;;;;;0.40;0.40;;;;;;;13.32;48.55;99571.91;4932132;29;20047;-68
2023/04/03 08:41:14;;;;;;;0.30;0.30;;;;;;;13.33;48.37;99592.75;4931849;29;20155;-68
2023/04/03 08:43:53;;;;;;;0.25;0.25;;;;;;;13.32;48.99;99585.63;4931243;29;20058;-68
2023/04/03 08:46:22;;;;;;;0.30;0.30;;;;;;;13.39;49.02;99594.31;4932078;29;20254;-68
2023/04/03 08:48:50;;;;;;;0.40;0.40;;;;;;;13.36;48.58;99594.91;4930143;29;20055;-68
2023/04/03 08:51:20;;;;;;;0.35;0.35;;;;;;;13.33;48.32;99599.06;4945823;28;20102;-68
2023/04/03 08:53:58;;;;;;;0.40;0.40;;;;;;;13.34;48.26;99597.94;4931771;29;20075;-68
2023/04/03 08:56:26;;;;;;;0.40;0.40;;;;;;;13.39;48.62;99599.00;4930840;29;20063;-68
2023/04/03 08:58:56;;;;;;;0.40;0.40;;;;;;;13.64;47.88;99600.53;4945860;28;20058;-68
2023/04/03 09:01:27;;;;;;;0.30;0.30;;;;;;;13.94;47.66;99601.13;4929734;29;20047;-68
2023/04/03 09:03:54;;;;;;;0.90;0.40;;;;;;;14.34;47.03;99608.91;4930471;29;20044;-69
2023/04/03 09:06:22;;;;;;;0.40;0.40;;;;;;;14.53;45.82;99611.56;4929381;29;20055;-68
2023/04/03 09:09:08;;;;;;;0.40;0.40;;;;;;;14.63;45.31;99616.06;4931625;29;20047;-69
2023/04/03 09:11:48;;;;;;;0.40;0.40;;;;;;;14.78;45.26;99614.94;4930593;29;20067;-70
2023/04/03 09:14:22;;;;;;;0.40;0.40;;;;;;;14.84;44.40;99619.22;4930964;29;20463;-69
2023/04/03 09:16:55;;;;;;;0.32;0.32;;;;;;;14.76;45.02;99622.69;4931956;29;20521;-68
2023/04/03 09:19:36;;;;;;;0.47;0.38;;;;;;;14.56;45.11;99624.72;4931200;29;20479;-68
2023/04/03 09:22:11;;;;;;;0.32;0.32;;;;;;;14.53;45.83;99622.59;4931471;29;20052;-68
2023/04/03 09:24:38;;;;;;;0.85;0.50;;;;;;;14.63;45.82;99629.81;4929051;29;20181;-68
2023/04/03 09:27:07;;;;;;;0.40;0.40;;;;;;;14.68;45.33;99620.63;4944087;28;20523;-68
2023/04/03 09:29:37;;;;;;;0.30;0.30;;;;;;;14.75;44.65;99623.81;4946254;28;20064;-68
2023/04/03 09:32:21;;;;;;;0.40;0.40;;;;;;;14.71;44.84;99620.84;4931533;29;20523;-68
2023/04/03 09:34:48;;;;;;;0.40;0.40;;;;;;;14.66;44.95;99620.09;4944957;28;20542;-68
2023/04/03 09:37:36;;;;;;;0.40;0.40;;;;;;;14.52;45.33;99631.13;4945360;29;20050;-68
2023/04/03 09:40:02;;;;;;;;;;;;;;;14.44;45.42;99632.66;4944975;28;20146;-68
2023/04/03 09:42:32;;;;;;;0.90;0.50;;;;;;;14.53;45.10;99625.34;4943862;28;19926;-68
2023/04/03 09:44:59;;;;;;;0.40;0.40;;;;;;;14.63;44.62;99628.97;4945832;29;20055;-68
2023/04/03 09:47:27;;;;;;;0.40;0.40;;;;;;;14.62;44.28;99622.69;4945612;28;20051;-68
2023/04/03 09:50:19;;;;;;;0.38;0.38;;;;;;;14.43;44.32;99628.28;4929222;29;20083;-69
2023/04/03 09:52:47;;;;;;;0.50;0.50;;;;;;;14.27;45.09;99625.81;4929798;29;20126;-68
2023/04/03 09:55:15;;;;;;;0.40;0.40;;;;;;;14.18;45.19;99633.94;4944254;28;20075;-68
2023/04/03 09:57:43;;;;;;;0.43;0.40;;;;;;;14.22;45.47;99630.59;4944742;29;20071;-68
2023/04/03 10:00:21;;;;;;;0.40;0.40;;;;;;;14.26;44.82;99631.59;4943627;28;20055;-68
2023/04/03 10:02:51;;;;;;;0.57;0.50;;;;;;;14.30;44.33;99630.69;4929326;29;20066;-67
2023/04/03 10:05:31;;;;;;;0.75;0.55;;;;;;;14.34;44.27;99628.16;4929199;28;20052;-68
2023/04/03 10:08:08;;;;;;;0.40;0.40;;;;;;;14.25;44.32;99636.31;4909984;29;20058;-68
2023/04/03 10:10:35;;;;;;;0.60;0.50;;;;;;;14.11;44.39;99629.97;4929965;29;20055;-68
2023/04/03 10:13:10;;;;;;;0.40;0.40;;;;;;;14.08;44.38;99630.56;4929405;29;20055;-68
2023/04/03 10:15:41;;;;;;;0.40;0.40;;;;;;;14.03;44.59;99632.28;4930097;29;20575;-68
2023/04/03 10:18:20;;;;;;;0.40;0.40;;;;;;;14.12;44.29;99637.09;4929528;29;20589;-68
2023/04/03 10:20:52;;;;;;;0.40;0.40;;;;;;;14.11;44.10;99624.47;4930874;29;20191;-68
2023/04/03 10:23:24;;;;;;;0.30;0.30;;;;;;;14.21;44.18;99632.53;4932418;29;20515;-68
2023/04/03 10:26:04;;;;;;;0.30;0.30;;;;;;;14.51;43.90;99632.25;4929216;29;20040;-68
2023/04/03 10:28:40;;;;;;;0.30;0.30;;;;;;;14.72;43.55;99638.19;4931083;29;20056;-68
2023/04/03 10:31:14;;;;;;;0.40;0.40;;;;;;;14.86;43.03;99638.16;4930550;29;20044;-68
2023/04/03 10:33:51;;;;;;;0.40;0.40;;;;;;;14.69;43.45;99636.03;4928725;29;20058;-68
2023/04/03 10:36:33;;;;;;;0.35;0.35;;;;;;;14.37;44.07;99643.25;4930120;29;20583;-68
2023/04/03 10:39:09;;;;;;;0.40;0.40;;;;;;;14.23;44.89;99633.06;4927626;29;20099;-68
2023/04/03 10:41:51;;;;;;;0.63;0.45;;;;;;;14.32;45.27;99631.22;4930936;29;20051;-68
2023/04/03 10:44:31;;;;;;;0.40;0.40;;;;;;;14.46;45.33;99636.75;4946478;28;20055;-68
2023/04/03 10:47:04;;;;;;;0.30;0.30;;;;;;;14.74;45.07;99634.00;4915609;29;20084;-68
2023/04/03 10:49:49;;;;;;;0.40;0.40;;;;;;;15.11;44.35;99638.75;4915075;29;20052;-68
2023/04/03 10:52:22;;;;;;;0.40;0.40;;;;;;;15.34;44.14;99631.34;4916038;29;20411;-68
2023/04/03 10:55:00;;;;;;;0.50;0.50;;;;;;;15.62;43.56;99635.94;4929614;29;20059;-68
2023/04/03 10:57:30;;;;;;;0.60;0.60;;;;;;;15.77;42.57;99632.00;4933364;29;20095;-68
2023/04/03 11:00:01;;;;;;;0.30;0.30;;;;;;;15.65;42.08;99630.63;4946283;29;20046;-68
2023/04/03 11:02:32;;;;;;;0.40;0.40;;;;;;;15.63;42.11;99630.13;4933275;29;20055;-68
2023/04/03 11:05:05;;;;;;;0.40;0.40;;;;;;;15.63;42.31;99632.88;4931158;29;20510;-68
2023/04/03 11:07:38;;;;;;;0.40;0.40;;;;;;;15.67;42.16;99627.53;4932080;29;20063;-68
2023/04/03 11:10:13;;;;;;;0.57;0.43;;;;;;;15.71;42.04;99617.53;4934203;28;20503;-68
2023/04/03 11:12:44;;;;;;;0.50;0.50;;;;;;;15.91;41.85;99618.16;4948378;28;20059;-67
2023/04/03 11:15:16;;;;;;;0.43;0.40;;;;;;;15.91;41.74;99615.41;4933844;28;20131;-68
2023/04/03 11:17:50;;;;;;;0.30;0.30;;;;;;;15.86;41.49;99616.31;4947143;28;20118;-68
2023/04/03 11:20:18;;;;;;;0.40;0.40;;;;;;;15.67;41.34;99622.00;4933213;29;20463;-68
2023/04/03 11:22:50;;;;;;;0.40;0.35;;;;;;;15.26;42.34;99623.81;4945634;29;20055;-67
2023/04/03 11:25:21;;;;;;;0.57;0.40;;;;;;;15.10;42.88;99620.59;4930990;29;20056;-67
2023/04/03 11:27:53;;;;;;;0.30;0.30;;;;;;;14.98;42.88;99619.19;4933329;29;20047;-67
2023/04/03 11:30:25;;;;;;;0.30;0.30;;;;;;;14.84;43.08;99610.97;4931754;29;20044;-68
2023/04/03 11:33:05;;;;;;;0.40;0.40;;;;;;;14.71;42.96;99620.03;4946280;28;20048;-68
2023/04/03 11:35:33;;;;;;;0.30;0.30;;;;;;;14.63;43.11;99612.47;4947557;28;20056;-67
2023/04/03 11:38:02;;;;;;;0.30;0.30;;;;;;;14.60;43.55;99613.91;4933353;28;20628;-67
2023/04/03 11:40:32;;;;;;;0.30;0.30;;;;;;;14.47;43.78;99612.78;4933349;29;20477;-68
2023/04/03 11:43:05;;;;;;;0.30;0.30;;;;;;;14.37;44.09;99618.50;4946969;28;20083;-67
2023/04/03 11:45:40;;;;;;;0.30;0.30;;;;;;;14.27;43.86;99620.31;4913914;29;20063;-67
2023/04/03 11:48:28;;;;;;;0.30;0.30;;;;;;;14.04;43.91;99603.66;4916331;29;20047;-69